Andover, Maine
Current Conditions -  °F | °C
As of 4:52 PM on Friday 31 Oct 2014 (Local Time) from KBML Reporting Station
Overcast Overcast  
Wind Chill: 47°   Ceiling: 5500
Heat Index: 47°   Visibility: 10mi
Dew Point: 27°   Wind: 3mph
Humidity: 46%   Direction: 10°N
Pressure: 30"   Gusts: NA
Location:  44.64°N, 70.75°W
Report Text: KBML 312052Z AUTO 01003KT 10SM OVC055 08/M03 A3000 RMK AO2 SLP167 T00831028 53002
Loading
Personal Weather Stations






























Interactive Weather Map
Tropical Storm Tracking
New forecast layout! Learn more

10-Day Weather Forecast

Advertisements
Track Severe Weather on mobile